Terminal Aerodrome Forecast
Issued by NWS

Home | Current Version | Previous Version | Text Only | Print | Product List | Glossary On
Versions: 1 2 3 4 5 6 7 8 9 10 11 12
798
FTUS45 KABQ 251408 AAA
TAFGUP
TAF AMD
KGUP 251408Z 2514/2612 24015KT P6SM VCSH SCT030 OVC050
      TEMPO 2514/2517 5SM -SHRA BKN025
     FM251700 23017G27KT 5SM -RA BR OVC025
     FM252100 28020G30KT P6SM VCSH OVC035=

USA.gov is the U.S. government's official web portal to all federal, state and local government web resources and services.